sensor_id;sensor_type;location;lat;lon;timestamp;P1;durP1;ratioP1;P2;durP2;ratioP2
55815;SDS011;41744;52.404;16.942;2022-11-27T00:01:44;64.23;;;19.17;;
55815;SDS011;41744;52.404;16.942;2022-11-27T00:04:10;63.17;;;18.20;;
55815;SDS011;41744;52.404;16.942;2022-11-27T00:06:37;56.90;;;17.03;;
55815;SDS011;41744;52.404;16.942;2022-11-27T00:09:06;56.43;;;17.13;;
55815;SDS011;41744;52.404;16.942;2022-11-27T00:11:32;65.33;;;17.70;;
55815;SDS011;41744;52.404;16.942;2022-11-27T00:13:58;53.00;;;17.63;;
55815;SDS011;41744;52.404;16.942;2022-11-27T00:16:25;60.63;;;16.87;;
55815;SDS011;41744;52.404;16.942;2022-11-27T00:18:51;53.63;;;16.27;;
55815;SDS011;41744;52.404;16.942;2022-11-27T00:21:22;57.83;;;16.47;;
55815;SDS011;41744;52.404;16.942;2022-11-27T00:23:49;61.73;;;18.00;;
55815;SDS011;41744;52.404;16.942;2022-11-27T00:26:15;58.93;;;17.87;;
55815;SDS011;41744;52.404;16.942;2022-11-27T00:28:42;59.10;;;17.07;;
55815;SDS011;41744;52.404;16.942;2022-11-27T00:31:18;57.47;;;17.27;;
55815;SDS011;41744;52.404;16.942;2022-11-27T00:33:44;54.13;;;15.57;;
55815;SDS011;41744;52.404;16.942;2022-11-27T00:36:10;59.03;;;16.77;;
55815;SDS011;41744;52.404;16.942;2022-11-27T00:38:36;60.93;;;16.80;;
55815;SDS011;41744;52.404;16.942;2022-11-27T00:41:06;56.37;;;17.07;;
55815;SDS011;41744;52.404;16.942;2022-11-27T00:43:33;65.70;;;18.03;;
55815;SDS011;41744;52.404;16.942;2022-11-27T00:45:59;57.80;;;17.60;;
55815;SDS011;41744;52.404;16.942;2022-11-27T00:48:25;53.20;;;16.97;;
55815;SDS011;41744;52.404;16.942;2022-11-27T00:50:51;64.47;;;17.13;;
55815;SDS011;41744;52.404;16.942;2022-11-27T00:53:17;61.20;;;17.03;;
55815;SDS011;41744;52.404;16.942;2022-11-27T00:55:45;51.77;;;16.23;;
55815;SDS011;41744;52.404;16.942;2022-11-27T00:58:11;59.80;;;17.03;;
55815;SDS011;41744;52.404;16.942;2022-11-27T01:00:37;60.40;;;17.73;;
55815;SDS011;41744;52.404;16.942;2022-11-27T01:03:03;56.93;;;16.10;;
55815;SDS011;41744;52.404;16.942;2022-11-27T01:05:29;59.77;;;17.20;;
55815;SDS011;41744;52.404;16.942;2022-11-27T01:07:55;54.87;;;17.33;;
55815;SDS011;41744;52.404;16.942;2022-11-27T01:10:21;54.93;;;16.87;;
55815;SDS011;41744;52.404;16.942;2022-11-27T01:12:49;56.90;;;16.10;;
55815;SDS011;41744;52.404;16.942;2022-11-27T01:15:15;59.27;;;17.57;;
55815;SDS011;41744;52.404;16.942;2022-11-27T01:17:41;60.80;;;17.10;;
55815;SDS011;41744;52.404;16.942;2022-11-27T01:20:07;58.83;;;17.67;;
55815;SDS011;41744;52.404;16.942;2022-11-27T01:22:33;56.93;;;17.27;;
55815;SDS011;41744;52.404;16.942;2022-11-27T01:24:59;58.73;;;16.87;;
55815;SDS011;41744;52.404;16.942;2022-11-27T01:27:25;57.43;;;17.17;;
55815;SDS011;41744;52.404;16.942;2022-11-27T01:29:51;67.30;;;19.10;;
55815;SDS011;41744;52.404;16.942;2022-11-27T01:32:17;54.20;;;17.07;;
55815;SDS011;41744;52.404;16.942;2022-11-27T01:34:43;54.97;;;17.30;;
55815;SDS011;41744;52.404;16.942;2022-11-27T01:37:09;58.17;;;17.13;;
55815;SDS011;41744;52.404;16.942;2022-11-27T01:39:35;60.10;;;17.40;;
55815;SDS011;41744;52.404;16.942;2022-11-27T01:42:01;64.33;;;18.57;;
55815;SDS011;41744;52.404;16.942;2022-11-27T01:46:54;65.80;;;18.80;;
55815;SDS011;41744;52.404;16.942;2022-11-27T01:54:16;73.20;;;20.47;;
55815;SDS011;41744;52.404;16.942;2022-11-27T01:56:43;63.60;;;17.90;;
55815;SDS011;41744;52.404;16.942;2022-11-27T01:59:10;65.77;;;19.40;;
55815;SDS011;41744;52.404;16.942;2022-11-27T02:01:37;62.13;;;17.63;;
55815;SDS011;41744;52.404;16.942;2022-11-27T02:04:03;62.50;;;18.50;;
55815;SDS011;41744;52.404;16.942;2022-11-27T02:06:29;55.73;;;17.47;;
55815;SDS011;41744;52.404;16.942;2022-11-27T02:08:55;56.33;;;17.23;;
55815;SDS011;41744;52.404;16.942;2022-11-27T02:11:26;53.93;;;16.80;;
55815;SDS011;41744;52.404;16.942;2022-11-27T02:14:08;60.67;;;18.87;;
55815;SDS011;41744;52.404;16.942;2022-11-27T02:16:36;63.30;;;18.30;;
55815;SDS011;41744;52.404;16.942;2022-11-27T02:29:22;56.70;;;17.93;;
55815;SDS011;41744;52.404;16.942;2022-11-27T02:36:52;52.83;;;17.57;;
55815;SDS011;41744;52.404;16.942;2022-11-27T02:39:21;58.17;;;18.33;;
55815;SDS011;41744;52.404;16.942;2022-11-27T02:41:51;59.60;;;18.63;;
55815;SDS011;41744;52.404;16.942;2022-11-27T02:44:19;58.03;;;18.00;;
55815;SDS011;41744;52.404;16.942;2022-11-27T02:46:46;54.20;;;18.37;;
55815;SDS011;41744;52.404;16.942;2022-11-27T02:49:14;57.07;;;18.40;;
55815;SDS011;41744;52.404;16.942;2022-11-27T02:51:42;59.67;;;17.97;;
55815;SDS011;41744;52.404;16.942;2022-11-27T02:54:10;68.67;;;20.13;;
55815;SDS011;41744;52.404;16.942;2022-11-27T02:56:38;62.23;;;18.90;;
55815;SDS011;41744;52.404;16.942;2022-11-27T02:59:06;75.57;;;19.67;;
55815;SDS011;41744;52.404;16.942;2022-11-27T03:01:35;79.53;;;21.63;;
55815;SDS011;41744;52.404;16.942;2022-11-27T03:04:05;78.53;;;22.33;;
55815;SDS011;41744;52.404;16.942;2022-11-27T03:06:35;85.57;;;21.30;;
55815;SDS011;41744;52.404;16.942;2022-11-27T03:09:04;90.03;;;22.10;;
55815;SDS011;41744;52.404;16.942;2022-11-27T03:11:31;91.83;;;21.87;;
55815;SDS011;41744;52.404;16.942;2022-11-27T03:14:02;90.63;;;22.63;;
55815;SDS011;41744;52.404;16.942;2022-11-27T03:21:29;103.10;;;24.03;;
55815;SDS011;41744;52.404;16.942;2022-11-27T03:23:57;99.13;;;24.30;;
55815;SDS011;41744;52.404;16.942;2022-11-27T03:26:23;109.30;;;24.07;;
55815;SDS011;41744;52.404;16.942;2022-11-27T03:28:49;110.57;;;23.97;;
55815;SDS011;41744;52.404;16.942;2022-11-27T03:31:16;100.80;;;22.57;;
55815;SDS011;41744;52.404;16.942;2022-11-27T03:33:42;102.37;;;24.77;;
55815;SDS011;41744;52.404;16.942;2022-11-27T03:36:12;92.90;;;23.53;;
55815;SDS011;41744;52.404;16.942;2022-11-27T03:38:39;90.90;;;22.47;;
55815;SDS011;41744;52.404;16.942;2022-11-27T03:43:54;89.83;;;22.30;;
55815;SDS011;41744;52.404;16.942;2022-11-27T03:46:30;83.90;;;22.50;;
55815;SDS011;41744;52.404;16.942;2022-11-27T03:49:35;97.33;;;22.17;;
55815;SDS011;41744;52.404;16.942;2022-11-27T03:54:22;72.83;;;20.93;;
55815;SDS011;41744;52.404;16.942;2022-11-27T03:56:54;75.50;;;21.30;;
55815;SDS011;41744;52.404;16.942;2022-11-27T03:59:27;65.70;;;20.27;;
55815;SDS011;41744;52.404;16.942;2022-11-27T04:01:54;62.83;;;19.67;;
55815;SDS011;41744;52.404;16.942;2022-11-27T04:04:20;67.10;;;19.60;;
55815;SDS011;41744;52.404;16.942;2022-11-27T04:06:46;68.37;;;19.97;;
55815;SDS011;41744;52.404;16.942;2022-11-27T04:09:12;68.67;;;19.50;;
55815;SDS011;41744;52.404;16.942;2022-11-27T04:11:38;68.77;;;20.47;;
55815;SDS011;41744;52.404;16.942;2022-11-27T04:14:04;80.37;;;21.53;;
55815;SDS011;41744;52.404;16.942;2022-11-27T04:16:30;68.13;;;19.60;;
55815;SDS011;41744;52.404;16.942;2022-11-27T04:18:56;83.83;;;21.20;;
55815;SDS011;41744;52.404;16.942;2022-11-27T04:21:22;77.00;;;21.17;;
55815;SDS011;41744;52.404;16.942;2022-11-27T04:23:48;76.30;;;21.13;;
55815;SDS011;41744;52.404;16.942;2022-11-27T04:26:14;74.13;;;20.90;;
55815;SDS011;41744;52.404;16.942;2022-11-27T04:28:40;72.27;;;21.07;;
55815;SDS011;41744;52.404;16.942;2022-11-27T04:31:06;77.20;;;21.03;;
55815;SDS011;41744;52.404;16.942;2022-11-27T04:33:32;77.30;;;19.43;;
55815;SDS011;41744;52.404;16.942;2022-11-27T04:35:58;73.60;;;20.30;;
55815;SDS011;41744;52.404;16.942;2022-11-27T04:38:24;82.33;;;20.47;;
55815;SDS011;41744;52.404;16.942;2022-11-27T04:40:50;75.23;;;20.53;;
55815;SDS011;41744;52.404;16.942;2022-11-27T04:43:17;71.93;;;21.00;;
55815;SDS011;41744;52.404;16.942;2022-11-27T04:45:43;70.83;;;21.20;;
55815;SDS011;41744;52.404;16.942;2022-11-27T04:48:09;71.30;;;20.10;;
55815;SDS011;41744;52.404;16.942;2022-11-27T04:50:35;59.50;;;18.47;;
55815;SDS011;41744;52.404;16.942;2022-11-27T04:53:01;66.13;;;19.47;;
55815;SDS011;41744;52.404;16.942;2022-11-27T04:55:27;63.63;;;19.70;;
55815;SDS011;41744;52.404;16.942;2022-11-27T04:57:53;67.50;;;20.57;;
55815;SDS011;41744;52.404;16.942;2022-11-27T05:00:20;61.80;;;19.33;;
55815;SDS011;41744;52.404;16.942;2022-11-27T05:02:46;63.73;;;19.27;;
55815;SDS011;41744;52.404;16.942;2022-11-27T05:05:12;61.93;;;18.37;;
55815;SDS011;41744;52.404;16.942;2022-11-27T05:07:38;63.57;;;18.20;;
55815;SDS011;41744;52.404;16.942;2022-11-27T05:10:04;67.17;;;19.20;;
55815;SDS011;41744;52.404;16.942;2022-11-27T05:12:30;65.53;;;19.40;;
55815;SDS011;41744;52.404;16.942;2022-11-27T05:14:56;60.20;;;18.73;;
55815;SDS011;41744;52.404;16.942;2022-11-27T05:17:22;65.03;;;18.93;;
55815;SDS011;41744;52.404;16.942;2022-11-27T05:19:48;61.43;;;18.80;;
55815;SDS011;41744;52.404;16.942;2022-11-27T05:22:15;66.80;;;20.00;;
55815;SDS011;41744;52.404;16.942;2022-11-27T05:24:41;63.40;;;18.53;;
55815;SDS011;41744;52.404;16.942;2022-11-27T05:27:07;75.27;;;19.80;;
55815;SDS011;41744;52.404;16.942;2022-11-27T05:29:33;58.33;;;18.90;;
55815;SDS011;41744;52.404;16.942;2022-11-27T05:31:59;63.57;;;19.80;;
55815;SDS011;41744;52.404;16.942;2022-11-27T05:34:25;72.37;;;19.37;;
55815;SDS011;41744;52.404;16.942;2022-11-27T05:36:51;64.67;;;19.07;;
55815;SDS011;41744;52.404;16.942;2022-11-27T05:39:17;59.10;;;19.60;;
55815;SDS011;41744;52.404;16.942;2022-11-27T05:41:43;69.27;;;20.53;;
55815;SDS011;41744;52.404;16.942;2022-11-27T05:44:10;61.70;;;19.40;;
55815;SDS011;41744;52.404;16.942;2022-11-27T05:46:36;57.27;;;19.20;;
55815;SDS011;41744;52.404;16.942;2022-11-27T05:49:02;56.77;;;17.63;;
55815;SDS011;41744;52.404;16.942;2022-11-27T05:51:30;60.57;;;19.47;;
55815;SDS011;41744;52.404;16.942;2022-11-27T05:53:56;61.73;;;18.73;;
55815;SDS011;41744;52.404;16.942;2022-11-27T05:56:22;56.33;;;18.57;;
55815;SDS011;41744;52.404;16.942;2022-11-27T05:58:48;62.87;;;18.83;;
55815;SDS011;41744;52.404;16.942;2022-11-27T06:01:15;60.37;;;18.63;;
55815;SDS011;41744;52.404;16.942;2022-11-27T06:03:42;57.73;;;18.40;;
55815;SDS011;41744;52.404;16.942;2022-11-27T06:06:08;57.30;;;18.40;;
55815;SDS011;41744;52.404;16.942;2022-11-27T06:08:35;59.53;;;18.73;;
55815;SDS011;41744;52.404;16.942;2022-11-27T06:11:08;61.57;;;18.40;;
55815;SDS011;41744;52.404;16.942;2022-11-27T06:13:34;66.37;;;18.37;;
55815;SDS011;41744;52.404;16.942;2022-11-27T06:16:15;59.93;;;19.07;;
55815;SDS011;41744;52.404;16.942;2022-11-27T06:18:42;59.97;;;19.63;;
55815;SDS011;41744;52.404;16.942;2022-11-27T06:21:08;59.67;;;17.93;;
55815;SDS011;41744;52.404;16.942;2022-11-27T06:23:35;66.03;;;19.17;;
55815;SDS011;41744;52.404;16.942;2022-11-27T06:26:08;66.33;;;18.87;;
55815;SDS011;41744;52.404;16.942;2022-11-27T06:28:34;68.10;;;19.20;;
55815;SDS011;41744;52.404;16.942;2022-11-27T06:31:04;63.57;;;18.27;;
55815;SDS011;41744;52.404;16.942;2022-11-27T06:33:30;57.33;;;19.37;;
55815;SDS011;41744;52.404;16.942;2022-11-27T06:35:56;58.33;;;18.97;;
55815;SDS011;41744;52.404;16.942;2022-11-27T06:38:21;65.83;;;20.50;;
55815;SDS011;41744;52.404;16.942;2022-11-27T06:40:48;68.87;;;19.87;;
55815;SDS011;41744;52.404;16.942;2022-11-27T06:43:14;68.53;;;20.07;;
55815;SDS011;41744;52.404;16.942;2022-11-27T06:45:40;62.10;;;21.23;;
55815;SDS011;41744;52.404;16.942;2022-11-27T06:48:06;69.87;;;20.30;;
55815;SDS011;41744;52.404;16.942;2022-11-27T06:50:32;65.80;;;20.37;;
55815;SDS011;41744;52.404;16.942;2022-11-27T06:52:58;60.03;;;20.77;;
55815;SDS011;41744;52.404;16.942;2022-11-27T06:55:24;75.07;;;20.60;;
55815;SDS011;41744;52.404;16.942;2022-11-27T06:57:50;64.63;;;19.90;;
55815;SDS011;41744;52.404;16.942;2022-11-27T07:00:17;67.90;;;20.97;;
55815;SDS011;41744;52.404;16.942;2022-11-27T07:02:43;63.57;;;19.70;;
55815;SDS011;41744;52.404;16.942;2022-11-27T07:05:09;66.87;;;20.60;;
55815;SDS011;41744;52.404;16.942;2022-11-27T07:07:35;61.13;;;19.17;;
55815;SDS011;41744;52.404;16.942;2022-11-27T07:10:01;65.60;;;20.13;;
55815;SDS011;41744;52.404;16.942;2022-11-27T07:12:27;59.90;;;20.90;;
55815;SDS011;41744;52.404;16.942;2022-11-27T07:14:53;65.77;;;19.07;;
55815;SDS011;41744;52.404;16.942;2022-11-27T07:17:19;63.93;;;19.93;;
55815;SDS011;41744;52.404;16.942;2022-11-27T07:19:45;61.43;;;20.53;;
55815;SDS011;41744;52.404;16.942;2022-11-27T07:22:11;62.70;;;20.10;;
55815;SDS011;41744;52.404;16.942;2022-11-27T07:24:37;58.93;;;19.17;;
55815;SDS011;41744;52.404;16.942;2022-11-27T07:27:03;57.73;;;19.00;;
55815;SDS011;41744;52.404;16.942;2022-11-27T07:29:29;58.20;;;19.90;;
55815;SDS011;41744;52.404;16.942;2022-11-27T07:31:55;60.27;;;18.27;;
55815;SDS011;41744;52.404;16.942;2022-11-27T07:34:21;59.97;;;19.10;;
55815;SDS011;41744;52.404;16.942;2022-11-27T07:36:47;56.40;;;18.10;;
55815;SDS011;41744;52.404;16.942;2022-11-27T07:39:13;58.77;;;19.17;;
55815;SDS011;41744;52.404;16.942;2022-11-27T07:41:39;66.40;;;19.67;;
55815;SDS011;41744;52.404;16.942;2022-11-27T07:44:05;57.13;;;19.47;;
55815;SDS011;41744;52.404;16.942;2022-11-27T07:46:31;70.40;;;20.60;;
55815;SDS011;41744;52.404;16.942;2022-11-27T07:48:57;63.87;;;20.63;;
55815;SDS011;41744;52.404;16.942;2022-11-27T07:51:24;68.40;;;21.00;;
55815;SDS011;41744;52.404;16.942;2022-11-27T07:53:50;71.30;;;22.40;;
55815;SDS011;41744;52.404;16.942;2022-11-27T07:56:16;64.13;;;20.10;;
55815;SDS011;41744;52.404;16.942;2022-11-27T07:58:42;65.77;;;20.10;;
55815;SDS011;41744;52.404;16.942;2022-11-27T08:01:10;61.43;;;20.00;;
55815;SDS011;41744;52.404;16.942;2022-11-27T08:03:36;64.47;;;20.00;;
55815;SDS011;41744;52.404;16.942;2022-11-27T08:06:02;64.60;;;20.77;;
55815;SDS011;41744;52.404;16.942;2022-11-27T08:08:29;62.87;;;20.50;;
55815;SDS011;41744;52.404;16.942;2022-11-27T08:10:55;60.97;;;20.33;;
55815;SDS011;41744;52.404;16.942;2022-11-27T08:13:21;60.27;;;19.60;;
55815;SDS011;41744;52.404;16.942;2022-11-27T08:15:47;59.83;;;18.97;;
55815;SDS011;41744;52.404;16.942;2022-11-27T08:18:13;60.63;;;20.73;;
55815;SDS011;41744;52.404;16.942;2022-11-27T08:20:39;63.00;;;20.83;;
55815;SDS011;41744;52.404;16.942;2022-11-27T08:23:05;69.37;;;21.70;;
55815;SDS011;41744;52.404;16.942;2022-11-27T08:25:31;65.53;;;19.93;;
55815;SDS011;41744;52.404;16.942;2022-11-27T08:27:57;73.23;;;21.17;;
55815;SDS011;41744;52.404;16.942;2022-11-27T08:30:23;60.33;;;20.13;;
55815;SDS011;41744;52.404;16.942;2022-11-27T08:32:49;65.13;;;20.30;;
55815;SDS011;41744;52.404;16.942;2022-11-27T08:35:15;58.70;;;19.37;;
55815;SDS011;41744;52.404;16.942;2022-11-27T08:37:41;61.33;;;20.23;;
55815;SDS011;41744;52.404;16.942;2022-11-27T08:40:07;57.10;;;17.60;;
55815;SDS011;41744;52.404;16.942;2022-11-27T08:42:33;66.00;;;20.73;;
55815;SDS011;41744;52.404;16.942;2022-11-27T08:44:59;62.43;;;20.90;;
55815;SDS011;41744;52.404;16.942;2022-11-27T08:47:25;63.33;;;20.23;;
55815;SDS011;41744;52.404;16.942;2022-11-27T08:49:51;59.93;;;20.73;;
55815;SDS011;41744;52.404;16.942;2022-11-27T08:52:17;63.47;;;19.40;;
55815;SDS011;41744;52.404;16.942;2022-11-27T08:54:44;65.70;;;21.00;;
55815;SDS011;41744;52.404;16.942;2022-11-27T08:57:10;59.40;;;19.27;;
55815;SDS011;41744;52.404;16.942;2022-11-27T08:59:36;61.50;;;19.83;;
55815;SDS011;41744;52.404;16.942;2022-11-27T09:02:02;58.40;;;18.83;;
55815;SDS011;41744;52.404;16.942;2022-11-27T09:04:28;60.50;;;18.80;;
55815;SDS011;41744;52.404;16.942;2022-11-27T09:06:54;55.37;;;18.60;;
55815;SDS011;41744;52.404;16.942;2022-11-27T09:09:20;62.07;;;18.87;;
55815;SDS011;41744;52.404;16.942;2022-11-27T09:11:46;55.70;;;18.90;;
55815;SDS011;41744;52.404;16.942;2022-11-27T09:14:12;61.87;;;16.50;;
55815;SDS011;41744;52.404;16.942;2022-11-27T09:16:38;49.10;;;16.67;;
55815;SDS011;41744;52.404;16.942;2022-11-27T09:19:04;44.87;;;16.57;;
55815;SDS011;41744;52.404;16.942;2022-11-27T09:21:30;44.37;;;14.60;;
55815;SDS011;41744;52.404;16.942;2022-11-27T09:23:57;38.47;;;12.23;;
55815;SDS011;41744;52.404;16.942;2022-11-27T09:26:23;32.63;;;12.60;;
55815;SDS011;41744;52.404;16.942;2022-11-27T09:28:51;38.00;;;12.67;;
55815;SDS011;41744;52.404;16.942;2022-11-27T09:31:17;39.40;;;12.93;;
55815;SDS011;41744;52.404;16.942;2022-11-27T09:33:43;35.90;;;13.50;;
55815;SDS011;41744;52.404;16.942;2022-11-27T09:36:14;33.77;;;12.50;;
55815;SDS011;41744;52.404;16.942;2022-11-27T09:38:40;39.30;;;14.00;;
55815;SDS011;41744;52.404;16.942;2022-11-27T09:43:42;35.53;;;12.80;;
55815;SDS011;41744;52.404;16.942;2022-11-27T09:46:12;37.17;;;12.57;;
55815;SDS011;41744;52.404;16.942;2022-11-27T09:48:41;39.50;;;12.57;;
55815;SDS011;41744;52.404;16.942;2022-11-27T09:51:16;30.23;;;11.97;;
55815;SDS011;41744;52.404;16.942;2022-11-27T09:53:51;31.63;;;12.17;;
55815;SDS011;41744;52.404;16.942;2022-11-27T09:56:20;32.93;;;11.33;;
55815;SDS011;41744;52.404;16.942;2022-11-27T09:59:07;37.30;;;13.60;;
55815;SDS011;41744;52.404;16.942;2022-11-27T10:01:36;32.57;;;11.83;;
55815;SDS011;41744;52.404;16.942;2022-11-27T10:04:02;33.63;;;12.90;;
55815;SDS011;41744;52.404;16.942;2022-11-27T10:11:28;33.33;;;12.57;;
55815;SDS011;41744;52.404;16.942;2022-11-27T10:16:42;27.90;;;10.27;;
55815;SDS011;41744;52.404;16.942;2022-11-27T10:21:45;32.50;;;11.80;;
55815;SDS011;41744;52.404;16.942;2022-11-27T10:24:28;29.60;;;11.20;;
55815;SDS011;41744;52.404;16.942;2022-11-27T10:27:00;27.93;;;11.57;;
55815;SDS011;41744;52.404;16.942;2022-11-27T10:31:54;27.00;;;11.10;;
55815;SDS011;41744;52.404;16.942;2022-11-27T10:34:31;25.90;;;10.07;;
55815;SDS011;41744;52.404;16.942;2022-11-27T10:37:00;29.07;;;10.20;;
55815;SDS011;41744;52.404;16.942;2022-11-27T10:39:30;22.93;;;9.17;;
55815;SDS011;41744;52.404;16.942;2022-11-27T10:42:08;23.40;;;9.07;;
55815;SDS011;41744;52.404;16.942;2022-11-27T10:44:39;26.50;;;9.77;;
55815;SDS011;41744;52.404;16.942;2022-11-27T10:47:07;24.30;;;9.10;;
55815;SDS011;41744;52.404;16.942;2022-11-27T10:49:34;27.07;;;10.70;;
55815;SDS011;41744;52.404;16.942;2022-11-27T10:52:01;27.07;;;9.83;;
55815;SDS011;41744;52.404;16.942;2022-11-27T10:54:32;22.80;;;9.13;;
55815;SDS011;41744;52.404;16.942;2022-11-27T10:59:52;26.77;;;9.87;;
55815;SDS011;41744;52.404;16.942;2022-11-27T11:02:28;23.43;;;8.80;;
55815;SDS011;41744;52.404;16.942;2022-11-27T11:04:54;23.07;;;8.57;;
55815;SDS011;41744;52.404;16.942;2022-11-27T11:07:23;21.93;;;8.67;;
55815;SDS011;41744;52.404;16.942;2022-11-27T11:09:49;21.50;;;8.50;;
55815;SDS011;41744;52.404;16.942;2022-11-27T11:12:17;22.40;;;8.67;;
55815;SDS011;41744;52.404;16.942;2022-11-27T11:17:16;22.20;;;8.50;;
55815;SDS011;41744;52.404;16.942;2022-11-27T11:19:43;24.90;;;8.77;;
55815;SDS011;41744;52.404;16.942;2022-11-27T11:22:13;22.73;;;8.53;;
55815;SDS011;41744;52.404;16.942;2022-11-27T11:24:43;21.37;;;7.67;;
55815;SDS011;41744;52.404;16.942;2022-11-27T11:29:37;18.23;;;7.27;;
55815;SDS011;41744;52.404;16.942;2022-11-27T11:34:30;24.93;;;7.63;;
55815;SDS011;41744;52.404;16.942;2022-11-27T11:37:01;21.77;;;7.47;;
55815;SDS011;41744;52.404;16.942;2022-11-27T11:39:29;19.33;;;7.53;;
55815;SDS011;41744;52.404;16.942;2022-11-27T11:41:56;18.73;;;7.40;;
55815;SDS011;41744;52.404;16.942;2022-11-27T11:44:34;16.43;;;7.20;;
55815;SDS011;41744;52.404;16.942;2022-11-27T11:47:01;16.83;;;7.07;;
55815;SDS011;41744;52.404;16.942;2022-11-27T11:49:27;18.07;;;7.47;;
55815;SDS011;41744;52.404;16.942;2022-11-27T11:54:42;17.03;;;6.73;;
55815;SDS011;41744;52.404;16.942;2022-11-27T11:57:27;15.80;;;6.63;;
55815;SDS011;41744;52.404;16.942;2022-11-27T12:00:15;17.90;;;7.03;;
55815;SDS011;41744;52.404;16.942;2022-11-27T12:05:33;19.33;;;7.13;;
55815;SDS011;41744;52.404;16.942;2022-11-27T12:10:30;15.30;;;6.43;;
55815;SDS011;41744;52.404;16.942;2022-11-27T12:36:54;20.70;;;7.20;;
55815;SDS011;41744;52.404;16.942;2022-11-27T12:41:59;18.00;;;6.93;;
55815;SDS011;41744;52.404;16.942;2022-11-27T12:44:29;20.10;;;7.47;;
55815;SDS011;41744;52.404;16.942;2022-11-27T12:46:59;17.13;;;6.90;;
55815;SDS011;41744;52.404;16.942;2022-11-27T12:51:57;20.73;;;7.00;;
55815;SDS011;41744;52.404;16.942;2022-11-27T12:57:16;21.97;;;7.67;;
55815;SDS011;41744;52.404;16.942;2022-11-27T12:59:49;23.27;;;7.90;;
55815;SDS011;41744;52.404;16.942;2022-11-27T13:02:20;22.87;;;8.57;;
55815;SDS011;41744;52.404;16.942;2022-11-27T13:07:16;26.20;;;8.63;;
55815;SDS011;41744;52.404;16.942;2022-11-27T13:09:54;23.10;;;8.63;;
55815;SDS011;41744;52.404;16.942;2022-11-27T13:12:25;22.53;;;8.00;;
55815;SDS011;41744;52.404;16.942;2022-11-27T13:14:54;25.63;;;8.23;;
55815;SDS011;41744;52.404;16.942;2022-11-27T13:17:22;19.17;;;8.03;;
55815;SDS011;41744;52.404;16.942;2022-11-27T13:19:50;26.10;;;8.33;;
55815;SDS011;41744;52.404;16.942;2022-11-27T13:22:21;23.30;;;8.93;;
55815;SDS011;41744;52.404;16.942;2022-11-27T13:24:51;27.53;;;9.20;;
55815;SDS011;41744;52.404;16.942;2022-11-27T13:27:18;22.97;;;8.57;;
55815;SDS011;41744;52.404;16.942;2022-11-27T13:34:45;27.33;;;9.63;;
55815;SDS011;41744;52.404;16.942;2022-11-27T13:37:45;29.33;;;9.97;;
55815;SDS011;41744;52.404;16.942;2022-11-27T13:40:05;27.40;;;9.63;;
55815;SDS011;41744;52.404;16.942;2022-11-27T13:42:33;29.47;;;10.07;;
55815;SDS011;41744;52.404;16.942;2022-11-27T13:45:02;28.50;;;10.37;;
55815;SDS011;41744;52.404;16.942;2022-11-27T13:47:34;27.37;;;9.43;;
55815;SDS011;41744;52.404;16.942;2022-11-27T13:50:02;24.97;;;9.67;;
55815;SDS011;41744;52.404;16.942;2022-11-27T13:52:28;34.63;;;10.17;;
55815;SDS011;41744;52.404;16.942;2022-11-27T13:54:58;26.90;;;10.27;;
55815;SDS011;41744;52.404;16.942;2022-11-27T13:57:26;32.53;;;10.97;;
55815;SDS011;41744;52.404;16.942;2022-11-27T14:05:14;29.43;;;11.03;;
55815;SDS011;41744;52.404;16.942;2022-11-27T14:07:47;31.23;;;11.83;;
55815;SDS011;41744;52.404;16.942;2022-11-27T14:10:14;30.43;;;11.40;;
55815;SDS011;41744;52.404;16.942;2022-11-27T14:12:49;31.70;;;10.77;;
55815;SDS011;41744;52.404;16.942;2022-11-27T14:17:43;31.97;;;11.73;;
55815;SDS011;41744;52.404;16.942;2022-11-27T14:25:15;29.83;;;11.77;;
55815;SDS011;41744;52.404;16.942;2022-11-27T14:27:41;28.43;;;11.47;;
55815;SDS011;41744;52.404;16.942;2022-11-27T14:32:52;30.90;;;12.10;;
55815;SDS011;41744;52.404;16.942;2022-11-27T14:35:19;31.53;;;11.83;;
55815;SDS011;41744;52.404;16.942;2022-11-27T14:37:45;33.23;;;11.33;;
55815;SDS011;41744;52.404;16.942;2022-11-27T14:40:17;41.13;;;13.53;;
55815;SDS011;41744;52.404;16.942;2022-11-27T14:42:44;30.23;;;12.57;;
55815;SDS011;41744;52.404;16.942;2022-11-27T14:45:14;33.73;;;13.10;;
55815;SDS011;41744;52.404;16.942;2022-11-27T14:47:44;36.00;;;12.50;;
55815;SDS011;41744;52.404;16.942;2022-11-27T14:50:11;33.37;;;13.07;;
55815;SDS011;41744;52.404;16.942;2022-11-27T14:52:38;39.43;;;13.10;;
55815;SDS011;41744;52.404;16.942;2022-11-27T14:55:07;39.33;;;13.10;;
55815;SDS011;41744;52.404;16.942;2022-11-27T14:57:34;34.13;;;13.37;;
55815;SDS011;41744;52.404;16.942;2022-11-27T15:00:13;37.33;;;12.93;;
55815;SDS011;41744;52.404;16.942;2022-11-27T15:02:39;36.47;;;12.80;;
55815;SDS011;41744;52.404;16.942;2022-11-27T15:05:06;35.10;;;13.27;;
55815;SDS011;41744;52.404;16.942;2022-11-27T15:07:33;36.87;;;13.40;;
55815;SDS011;41744;52.404;16.942;2022-11-27T15:10:01;33.20;;;13.60;;
55815;SDS011;41744;52.404;16.942;2022-11-27T15:12:31;34.70;;;13.57;;
55815;SDS011;41744;52.404;16.942;2022-11-27T15:17:25;40.60;;;14.37;;
55815;SDS011;41744;52.404;16.942;2022-11-27T15:19:51;35.10;;;12.90;;
55815;SDS011;41744;52.404;16.942;2022-11-27T15:22:18;41.60;;;14.23;;
55815;SDS011;41744;52.404;16.942;2022-11-27T15:24:44;39.97;;;13.03;;
55815;SDS011;41744;52.404;16.942;2022-11-27T15:29:41;38.63;;;14.63;;
55815;SDS011;41744;52.404;16.942;2022-11-27T15:32:17;36.70;;;14.23;;
55815;SDS011;41744;52.404;16.942;2022-11-27T15:34:43;38.70;;;14.27;;
55815;SDS011;41744;52.404;16.942;2022-11-27T15:37:29;38.10;;;14.60;;
55815;SDS011;41744;52.404;16.942;2022-11-27T15:39:56;39.83;;;14.67;;
55815;SDS011;41744;52.404;16.942;2022-11-27T15:42:22;39.60;;;14.87;;
55815;SDS011;41744;52.404;16.942;2022-11-27T15:44:53;42.73;;;15.50;;
55815;SDS011;41744;52.404;16.942;2022-11-27T15:47:21;41.10;;;15.57;;
55815;SDS011;41744;52.404;16.942;2022-11-27T15:49:47;44.63;;;15.77;;
55815;SDS011;41744;52.404;16.942;2022-11-27T15:52:14;46.23;;;16.37;;
55815;SDS011;41744;52.404;16.942;2022-11-27T15:54:39;45.60;;;15.97;;
55815;SDS011;41744;52.404;16.942;2022-11-27T15:57:05;42.37;;;15.87;;
55815;SDS011;41744;52.404;16.942;2022-11-27T15:59:31;38.67;;;15.57;;
55815;SDS011;41744;52.404;16.942;2022-11-27T16:01:57;48.30;;;16.27;;
55815;SDS011;41744;52.404;16.942;2022-11-27T16:04:23;44.60;;;17.27;;
55815;SDS011;41744;52.404;16.942;2022-11-27T16:06:50;45.50;;;16.70;;
55815;SDS011;41744;52.404;16.942;2022-11-27T16:09:16;45.57;;;17.33;;
55815;SDS011;41744;52.404;16.942;2022-11-27T16:11:42;43.83;;;16.97;;
55815;SDS011;41744;52.404;16.942;2022-11-27T16:14:07;50.63;;;17.60;;
55815;SDS011;41744;52.404;16.942;2022-11-27T16:16:34;47.93;;;17.47;;
55815;SDS011;41744;52.404;16.942;2022-11-27T16:19:00;44.80;;;17.00;;
55815;SDS011;41744;52.404;16.942;2022-11-27T16:21:28;44.23;;;15.50;;